Cleburne, Texas
Current Conditions -  °F | °C
As of 5:15 PM on Tuesday 25 Nov 2014 (Local Time) from KCPT Reporting Station
Clear Clear  
Wind Chill: 57°   Ceiling: Unl
Heat Index: 57°   Visibility: 10mi
Dew Point: 27°   Wind: 5mph
Humidity: 31%   Direction: 280°W
Pressure: 30.18"   Gusts: NA
Location:  32.35°N, 97.39°W
Report Text: KCPT 252315Z AUTO 28004KT 10SM CLR 14/M03 A3018 RMK AO2
Loading
Personal Weather Stations






























Interactive Weather Map New forecast layout! Learn more

10-Day Weather Forecast

Advertisements
Track Severe Weather on mobile